createdAt,value
2018-03-19T00:00:51.748Z,5.60
2018-03-19T00:01:51.759Z,8.00
2018-03-19T00:02:51.774Z,7.30
2018-03-19T00:03:51.792Z,7.20
2018-03-19T00:04:51.804Z,7.30
2018-03-19T00:05:51.820Z,7.00
2018-03-19T00:06:51.830Z,8.50
2018-03-19T00:07:51.850Z,8.40
2018-03-19T00:08:51.858Z,7.40
2018-03-19T00:09:51.888Z,7.30
2018-03-19T00:10:51.887Z,7.00
2018-03-19T00:11:51.901Z,7.30
2018-03-19T00:12:51.922Z,6.30
2018-03-19T00:13:51.932Z,6.70
2018-03-19T00:14:51.952Z,8.10
2018-03-19T00:15:51.963Z,7.70
2018-03-19T00:16:51.980Z,8.00
2018-03-19T00:17:52.002Z,9.00
2018-03-19T00:18:52.002Z,6.20
2018-03-19T00:19:52.023Z,7.50
2018-03-19T00:20:52.034Z,6.80
2018-03-19T00:21:52.047Z,6.80
2018-03-19T00:22:52.065Z,7.40
2018-03-19T00:23:52.081Z,6.80
2018-03-19T00:24:52.098Z,6.50
2018-03-19T00:25:52.104Z,6.70
2018-03-19T00:26:52.126Z,6.60
2018-03-19T00:27:52.152Z,6.90
2018-03-19T00:28:52.149Z,5.60
2018-03-19T00:29:52.172Z,6.20
2018-03-19T00:30:52.177Z,7.60
2018-03-19T00:31:52.192Z,7.70
2018-03-19T00:32:52.207Z,7.80
2018-03-19T00:33:52.224Z,6.30
2018-03-19T00:34:52.237Z,9.00
2018-03-19T00:35:52.255Z,7.50
2018-03-19T00:36:52.271Z,9.00
2018-03-19T00:37:52.288Z,7.30
2018-03-19T00:38:52.296Z,6.70
2018-03-19T00:39:52.311Z,8.40
2018-03-19T00:40:52.323Z,5.90
2018-03-19T00:41:52.340Z,7.20
2018-03-19T00:42:52.358Z,6.50
2018-03-19T00:43:52.366Z,6.20
2018-03-19T00:44:52.383Z,6.10
2018-03-19T00:45:52.396Z,7.90
2018-03-19T00:46:52.413Z,7.70
2018-03-19T00:47:52.426Z,8.00
2018-03-19T00:48:52.436Z,6.50
2018-03-19T00:49:52.456Z,6.70
2018-03-19T00:50:52.477Z,6.00
2018-03-19T00:51:52.485Z,7.80
2018-03-19T00:52:52.500Z,7.50
2018-03-19T00:53:52.510Z,7.40
2018-03-19T00:54:52.528Z,6.20
2018-03-19T00:55:52.541Z,7.00
2018-03-19T00:56:52.556Z,7.40
2018-03-19T00:57:52.566Z,7.50
2018-03-19T00:58:52.589Z,8.20
2018-03-19T00:59:52.600Z,7.20
2018-03-19T01:00:52.622Z,6.80
2018-03-19T01:01:52.625Z,8.30
2018-03-19T01:02:52.644Z,9.00
2018-03-19T01:03:52.653Z,6.90
2018-03-19T01:04:52.676Z,6.30
2018-03-19T01:05:52.689Z,6.80
2018-03-19T01:06:52.698Z,6.60
2018-03-19T01:07:52.712Z,7.00
2018-03-19T01:08:52.728Z,7.10
2018-03-19T01:09:52.740Z,6.80
2018-03-19T01:10:52.757Z,6.40
2018-03-19T01:11:52.767Z,8.70
2018-03-19T01:12:52.779Z,7.10
2018-03-19T01:13:52.798Z,9.10
2018-03-19T01:14:52.818Z,8.30
2018-03-19T01:15:52.824Z,7.90
2018-03-19T01:16:52.838Z,7.60
2018-03-19T01:17:52.853Z,8.70
2018-03-19T01:18:52.869Z,9.30
2018-03-19T01:19:53.136Z,9.30
2018-03-19T01:20:52.895Z,7.40
2018-03-19T01:21:52.909Z,7.90
2018-03-19T01:22:52.928Z,9.00
2018-03-19T01:23:52.937Z,9.10
2018-03-19T01:24:52.955Z,10.20
2018-03-19T01:25:52.972Z,9.20
2018-03-19T01:26:52.986Z,7.90
2018-03-19T01:27:52.998Z,8.40
2018-03-19T01:28:53.018Z,8.80
2018-03-19T01:29:53.028Z,7.90
2018-03-19T01:30:53.038Z,8.60
2018-03-19T01:31:53.058Z,9.00
2018-03-19T01:32:53.064Z,7.90
2018-03-19T01:33:53.082Z,7.50
2018-03-19T01:34:53.094Z,6.60
2018-03-19T01:35:53.108Z,8.00
2018-03-19T01:36:53.127Z,8.80
2018-03-19T01:37:53.133Z,9.80
2018-03-19T01:38:53.150Z,7.80
2018-03-19T01:39:53.163Z,9.30
2018-03-19T01:40:53.182Z,8.60
2018-03-19T01:41:53.192Z,7.90
2018-03-19T01:42:53.206Z,8.50
2018-03-19T01:43:53.226Z,8.50
2018-03-19T01:44:53.231Z,9.00
2018-03-19T01:45:53.250Z,9.10
2018-03-19T01:46:53.263Z,8.30
2018-03-19T01:47:53.273Z,8.10
2018-03-19T01:48:53.296Z,9.30
2018-03-19T01:49:53.303Z,8.80
2018-03-19T01:50:53.325Z,7.10
2018-03-19T01:51:53.331Z,7.50
2018-03-19T01:52:53.342Z,7.50
2018-03-19T01:53:53.360Z,8.50
2018-03-19T01:54:53.376Z,7.20
2018-03-19T01:55:53.387Z,8.20
2018-03-19T01:56:53.405Z,7.70
2018-03-19T01:57:53.420Z,8.40
2018-03-19T01:58:53.431Z,7.90
2018-03-19T01:59:53.447Z,6.80
2018-03-19T02:00:53.456Z,7.60
2018-03-19T02:01:53.470Z,7.40
2018-03-19T02:02:53.487Z,7.00
2018-03-19T02:03:53.500Z,9.40
2018-03-19T02:04:53.511Z,8.40
2018-03-19T02:05:53.527Z,7.90
2018-03-19T02:06:53.539Z,7.20
2018-03-19T02:07:53.556Z,7.80
2018-03-19T02:08:53.570Z,8.30
2018-03-19T02:09:53.589Z,7.20
2018-03-19T02:10:53.600Z,8.30
2018-03-19T02:11:53.614Z,8.20
2018-03-19T02:12:53.626Z,8.20
2018-03-19T02:13:53.641Z,6.70
2018-03-19T02:14:53.658Z,8.40
2018-03-19T02:15:53.671Z,7.70
2018-03-19T02:16:53.679Z,7.50
2018-03-19T02:17:53.700Z,7.80
2018-03-19T02:18:53.709Z,8.20
2018-03-19T02:19:53.730Z,8.30
2018-03-19T02:20:53.740Z,7.70
2018-03-19T02:21:53.749Z,7.90
2018-03-19T02:22:53.768Z,6.20
2018-03-19T02:23:53.785Z,8.80
2018-03-19T02:24:53.790Z,6.70
2018-03-19T02:25:53.803Z,7.30
2018-03-19T02:26:53.823Z,7.50
2018-03-19T02:27:53.842Z,7.70
2018-03-19T02:28:53.854Z,7.90
2018-03-19T02:29:53.862Z,8.30
2018-03-19T02:30:53.878Z,9.60
2018-03-19T02:31:53.892Z,8.80
2018-03-19T02:32:53.963Z,8.40
2018-03-19T02:33:53.965Z,9.40
2018-03-19T02:34:53.928Z,7.50
2018-03-19T02:35:53.951Z,7.80
2018-03-19T02:36:53.959Z,7.50
2018-03-19T02:37:53.974Z,8.70
2018-03-19T02:38:53.989Z,8.50
2018-03-19T02:39:54.003Z,6.10
2018-03-19T02:40:54.014Z,7.70
2018-03-19T02:41:54.029Z,7.90
2018-03-19T02:42:54.044Z,7.40
2018-03-19T02:43:54.060Z,9.00
2018-03-19T02:44:54.071Z,9.50
2018-03-19T02:45:54.086Z,8.50
2018-03-19T02:46:54.107Z,7.30
2018-03-19T02:47:54.108Z,7.60
2018-03-19T02:48:54.124Z,8.20
2018-03-19T02:49:54.138Z,7.40
2018-03-19T02:50:54.156Z,8.40
2018-03-19T02:51:54.171Z,8.50
2018-03-19T02:52:54.180Z,7.40
2018-03-19T02:53:54.192Z,7.40
2018-03-19T02:54:54.209Z,7.40
2018-03-19T02:55:54.227Z,7.80
2018-03-19T02:56:54.237Z,8.50
2018-03-19T02:57:54.249Z,8.10
2018-03-19T02:58:54.263Z,6.50
2018-03-19T02:59:54.280Z,8.00
2018-03-19T03:00:54.290Z,7.30
2018-03-19T03:01:54.304Z,11.00
2018-03-19T03:02:54.318Z,7.50
2018-03-19T03:03:54.333Z,8.60
2018-03-19T03:04:54.344Z,8.10
2018-03-19T03:05:54.358Z,7.30
2018-03-19T03:06:54.375Z,8.30
2018-03-19T03:07:54.391Z,7.80
2018-03-19T03:08:54.399Z,7.70
2018-03-19T03:09:54.417Z,8.60
2018-03-19T03:10:54.427Z,8.70
2018-03-19T03:11:54.740Z,7.50
2018-03-19T03:12:54.460Z,7.80
2018-03-19T03:13:54.474Z,9.00
2018-03-19T03:14:54.486Z,7.90
2018-03-19T03:15:54.497Z,7.30
2018-03-19T03:16:54.506Z,7.90
2018-03-19T03:17:54.524Z,8.20
2018-03-19T03:18:54.539Z,8.20
2018-03-19T03:19:54.549Z,7.90
2018-03-19T03:20:54.566Z,7.80
2018-03-19T03:21:54.579Z,6.40
2018-03-19T03:22:54.591Z,8.60
2018-03-19T03:23:54.606Z,9.80
2018-03-19T03:24:54.617Z,8.40
2018-03-19T03:25:54.637Z,9.80
2018-03-19T03:26:54.645Z,7.20
2018-03-19T03:27:54.662Z,8.40
2018-03-19T03:28:54.678Z,8.40
2018-03-19T03:29:54.687Z,9.70
2018-03-19T03:30:54.701Z,8.40
2018-03-19T03:31:54.721Z,9.70
2018-03-19T03:32:54.735Z,8.20
2018-03-19T03:33:54.741Z,7.30
2018-03-19T03:34:54.756Z,8.10
2018-03-19T03:35:54.770Z,8.50
2018-03-19T03:36:54.786Z,10.80
2018-03-19T03:37:54.797Z,9.10
2018-03-19T03:38:54.815Z,8.50
2018-03-19T03:39:54.825Z,10.90
2018-03-19T03:40:54.839Z,9.70
2018-03-19T03:41:54.849Z,9.30
2018-03-19T03:42:54.865Z,9.00
2018-03-19T03:43:54.880Z,9.60
2018-03-19T03:44:54.895Z,11.60
2018-03-19T03:45:54.912Z,10.60
2018-03-19T03:46:54.927Z,8.90
2018-03-19T03:47:54.934Z,10.10
2018-03-19T03:48:54.947Z,12.70
2018-03-19T03:49:54.965Z,10.20
2018-03-19T03:50:54.973Z,9.60
2018-03-19T03:51:54.991Z,8.90
2018-03-19T03:52:55.005Z,9.00
2018-03-19T03:53:55.013Z,12.70
2018-03-19T03:54:55.032Z,11.40
2018-03-19T03:55:55.043Z,10.30
2018-03-19T03:56:55.062Z,9.10
2018-03-19T03:57:55.077Z,10.10
2018-03-19T03:58:55.084Z,9.70
2018-03-19T03:59:55.098Z,12.00
2018-03-19T04:00:55.116Z,10.90
2018-03-19T04:01:55.123Z,10.00
2018-03-19T04:02:55.138Z,10.90
2018-03-19T04:03:55.153Z,11.40
2018-03-19T04:04:55.168Z,13.30
2018-03-19T04:05:55.184Z,11.00
2018-03-19T04:06:55.195Z,7.80
2018-03-19T04:07:55.208Z,8.20
2018-03-19T04:08:55.224Z,10.80
2018-03-19T04:09:55.234Z,7.60
2018-03-19T04:10:55.249Z,9.50
2018-03-19T04:11:55.262Z,10.00
2018-03-19T04:12:55.278Z,9.70
2018-03-19T04:13:55.288Z,9.00
2018-03-19T04:14:55.303Z,10.20
2018-03-19T04:15:55.316Z,9.70
2018-03-19T04:16:55.332Z,10.20
2018-03-19T04:17:55.343Z,12.30
2018-03-19T04:18:55.356Z,10.10
2018-03-19T04:19:55.377Z,8.30
2018-03-19T04:20:55.395Z,9.90
2018-03-19T04:21:55.400Z,9.40
2018-03-19T04:22:55.412Z,9.40
2018-03-19T04:23:55.426Z,8.60
2018-03-19T04:24:55.519Z,9.80
2018-03-19T04:25:55.457Z,8.40
2018-03-19T04:26:55.469Z,9.70
2018-03-19T04:27:55.482Z,8.90
2018-03-19T04:28:55.495Z,8.50
2018-03-19T04:29:55.517Z,11.00
2018-03-19T04:30:55.525Z,10.60
2018-03-19T04:31:55.536Z,7.40
2018-03-19T04:32:55.547Z,8.70
2018-03-19T04:33:55.566Z,11.30
2018-03-19T04:34:55.577Z,8.20
2018-03-19T04:35:55.593Z,9.50
2018-03-19T04:36:55.606Z,9.20
2018-03-19T04:37:55.627Z,8.50
2018-03-19T04:38:55.882Z,8.90
2018-03-19T04:39:55.650Z,9.30
2018-03-19T04:40:55.657Z,8.80
2018-03-19T04:41:55.672Z,11.90
2018-03-19T04:42:55.685Z,10.50
2018-03-19T04:43:55.704Z,9.80
2018-03-19T04:44:55.711Z,14.10
2018-03-19T04:45:55.725Z,9.40
2018-03-19T04:46:55.740Z,11.20
2018-03-19T04:47:55.755Z,9.80
2018-03-19T04:48:55.770Z,11.90
2018-03-19T04:49:55.780Z,10.80
2018-03-19T04:50:55.796Z,10.70
2018-03-19T04:51:55.808Z,10.80
2018-03-19T04:52:55.822Z,10.80
2018-03-19T04:53:55.837Z,9.50
2018-03-19T04:54:55.845Z,9.70
2018-03-19T04:55:55.866Z,9.70
2018-03-19T04:56:55.875Z,9.60
2018-03-19T04:57:55.892Z,10.10
2018-03-19T04:58:55.901Z,10.70
2018-03-19T04:59:55.917Z,8.60
2018-03-19T05:00:55.930Z,9.30
2018-03-19T05:01:55.943Z,9.50
2018-03-19T05:02:55.954Z,10.40
2018-03-19T05:03:55.973Z,12.10
2018-03-19T05:04:55.986Z,9.20
2018-03-19T05:05:55.994Z,9.10
2018-03-19T05:06:56.010Z,13.40
2018-03-19T05:07:56.024Z,9.60
2018-03-19T05:08:56.034Z,10.20
2018-03-19T05:09:56.055Z,9.00
2018-03-19T05:10:56.065Z,8.40
2018-03-19T05:11:56.079Z,7.90
2018-03-19T05:12:56.097Z,6.70
2018-03-19T05:13:56.111Z,9.80
2018-03-19T05:14:56.119Z,9.10
2018-03-19T05:15:56.133Z,8.70
2018-03-19T05:16:56.143Z,12.90
2018-03-19T05:17:56.160Z,10.80
2018-03-19T05:18:56.176Z,7.90
2018-03-19T05:19:56.182Z,8.90
2018-03-19T05:20:56.200Z,9.70
2018-03-19T05:21:56.222Z,7.70
2018-03-19T05:22:56.227Z,8.80
2018-03-19T05:23:56.239Z,9.20
2018-03-19T05:24:56.254Z,11.40
2018-03-19T05:25:56.272Z,8.00
2018-03-19T05:26:56.287Z,9.00
2018-03-19T05:27:56.297Z,9.90
2018-03-19T05:28:56.313Z,9.90
2018-03-19T05:29:56.319Z,10.10
2018-03-19T05:30:56.341Z,10.10
2018-03-19T05:31:56.354Z,10.20
2018-03-19T05:32:56.367Z,10.70
2018-03-19T05:33:56.378Z,8.90
2018-03-19T05:34:56.397Z,9.80
2018-03-19T05:35:56.403Z,8.80
2018-03-19T05:36:56.421Z,8.70
2018-03-19T05:37:56.430Z,8.00
2018-03-19T05:38:56.442Z,9.10
2018-03-19T05:39:56.458Z,11.60
2018-03-19T05:40:56.468Z,8.10
2018-03-19T05:41:56.492Z,9.20
2018-03-19T05:42:56.497Z,8.60
2018-03-19T05:43:56.516Z,11.30
2018-03-19T05:44:56.522Z,9.30
2018-03-19T05:45:56.542Z,10.10
2018-03-19T05:46:56.554Z,9.60
2018-03-19T05:47:56.565Z,9.10
2018-03-19T05:48:56.580Z,9.30
2018-03-19T05:49:56.598Z,11.90
2018-03-19T05:50:56.607Z,9.60
2018-03-19T05:51:56.621Z,8.70
2018-03-19T05:52:56.631Z,10.00
2018-03-19T05:53:56.647Z,9.10
2018-03-19T05:54:56.661Z,12.90
2018-03-19T05:55:56.675Z,10.20
2018-03-19T05:56:56.691Z,10.50
2018-03-19T05:57:56.701Z,10.80
2018-03-19T05:58:56.715Z,11.10
2018-03-19T05:59:56.730Z,11.90
2018-03-19T06:00:56.742Z,10.20
2018-03-19T06:01:56.755Z,10.60
2018-03-19T06:02:56.768Z,9.50
2018-03-19T06:03:56.787Z,9.90
2018-03-19T06:04:56.796Z,11.60
2018-03-19T06:05:56.812Z,11.00
2018-03-19T06:06:56.830Z,11.10
2018-03-19T06:07:56.842Z,11.00
2018-03-19T06:08:56.856Z,10.30
2018-03-19T06:09:56.868Z,9.70
2018-03-19T06:10:56.882Z,11.60
2018-03-19T06:11:56.895Z,9.70
2018-03-19T06:12:56.910Z,9.20
2018-03-19T06:13:56.923Z,10.40
2018-03-19T06:14:56.936Z,12.70
2018-03-19T06:15:56.947Z,11.00
2018-03-19T06:16:56.960Z,10.20
2018-03-19T06:17:56.978Z,8.30
2018-03-19T06:18:56.990Z,9.80
2018-03-19T06:19:57.008Z,10.80
2018-03-19T06:20:57.030Z,12.40
2018-03-19T06:21:57.034Z,10.80
2018-03-19T06:22:57.046Z,10.70
2018-03-19T06:23:57.069Z,12.20
2018-03-19T06:24:57.074Z,10.90
2018-03-19T06:25:57.087Z,8.70
2018-03-19T06:26:57.100Z,10.30
2018-03-19T06:27:57.119Z,10.10
2018-03-19T06:28:57.124Z,9.80
2018-03-19T06:29:57.137Z,9.70
2018-03-19T06:30:57.155Z,10.70
2018-03-19T06:31:57.170Z,8.90
2018-03-19T06:32:57.179Z,11.70
2018-03-19T06:33:57.206Z,10.40
2018-03-19T06:34:57.209Z,10.00
2018-03-19T06:35:57.226Z,10.50
2018-03-19T06:36:57.244Z,10.70
2018-03-19T06:37:57.249Z,12.20
2018-03-19T06:38:57.268Z,9.50
2018-03-19T06:39:57.278Z,9.40
2018-03-19T06:40:57.300Z,12.60
2018-03-19T06:41:57.313Z,10.50
2018-03-19T06:42:57.325Z,9.10
2018-03-19T06:43:57.335Z,11.20
2018-03-19T06:44:57.355Z,11.20
2018-03-19T06:45:57.363Z,10.10
2018-03-19T06:46:57.378Z,9.70
2018-03-19T06:47:57.392Z,9.90
2018-03-19T06:48:57.404Z,10.30
2018-03-19T06:49:57.429Z,11.50
2018-03-19T06:50:57.434Z,9.50
2018-03-19T06:51:57.452Z,9.80
2018-03-19T06:52:57.468Z,11.20
2018-03-19T06:53:57.474Z,12.50
2018-03-19T06:54:57.488Z,10.30
2018-03-19T06:55:57.504Z,10.80
2018-03-19T06:56:57.517Z,11.70
2018-03-19T06:57:57.542Z,10.50
2018-03-19T06:58:57.548Z,11.90
2018-03-19T06:59:57.558Z,10.60
2018-03-19T07:00:57.628Z,8.60
2018-03-19T07:01:57.590Z,10.50
2018-03-19T07:02:57.606Z,10.30
2018-03-19T07:03:57.614Z,9.70
2018-03-19T07:04:57.627Z,11.70
2018-03-19T07:05:57.649Z,10.10
2018-03-19T07:06:57.658Z,10.80
2018-03-19T07:07:57.670Z,12.40
2018-03-19T07:08:57.684Z,10.10
2018-03-19T07:09:57.696Z,10.60
2018-03-19T07:10:57.712Z,8.50
2018-03-19T07:11:57.728Z,9.90
2018-03-19T07:12:57.741Z,10.30
2018-03-19T07:13:57.762Z,10.20
2018-03-19T07:14:57.772Z,11.70
2018-03-19T07:15:57.789Z,9.80
2018-03-19T07:16:57.796Z,9.90
2018-03-19T07:17:57.815Z,11.10
2018-03-19T07:18:57.835Z,10.30
2018-03-19T07:19:57.841Z,10.20
2018-03-19T07:20:57.857Z,12.20
2018-03-19T07:21:57.871Z,11.70
2018-03-19T07:22:57.895Z,11.70
2018-03-19T07:23:57.905Z,13.10
2018-03-19T07:24:57.925Z,12.50
2018-03-19T07:25:57.926Z,11.60
2018-03-19T07:26:57.942Z,8.90
2018-03-19T07:27:57.962Z,11.20
2018-03-19T07:28:57.972Z,10.80
2018-03-19T07:29:58.248Z,12.90
2018-03-19T07:30:58.000Z,11.30
2018-03-19T07:31:58.016Z,11.30
2018-03-19T07:32:58.040Z,10.80
2018-03-19T07:33:58.048Z,10.90
2018-03-19T07:34:58.063Z,8.10
2018-03-19T07:35:58.330Z,10.80
2018-03-19T07:36:58.088Z,11.60
2018-03-19T07:37:58.116Z,11.00
2018-03-19T07:38:58.121Z,10.30
2018-03-19T07:39:58.134Z,10.50
2018-03-19T07:40:58.196Z,14.00
2018-03-19T07:41:58.162Z,13.40
2018-03-19T07:42:58.187Z,11.00
2018-03-19T07:43:58.197Z,10.60
2018-03-19T07:44:58.205Z,12.80
2018-03-19T07:45:58.220Z,13.50
2018-03-19T07:46:58.237Z,13.10
2018-03-19T07:47:58.250Z,10.70
2018-03-19T07:48:58.264Z,10.40
2018-03-19T07:49:58.279Z,10.10
2018-03-19T07:50:58.290Z,11.30
2018-03-19T07:51:58.305Z,9.50
2018-03-19T07:52:58.322Z,9.30
2018-03-19T07:53:58.343Z,8.90
2018-03-19T07:54:58.353Z,10.20
2018-03-19T07:55:58.364Z,10.70
2018-03-19T07:56:58.633Z,12.30
2018-03-19T07:57:58.403Z,12.00
2018-03-19T07:58:58.411Z,11.40
2018-03-19T07:59:58.429Z,9.10
2018-03-19T08:00:58.443Z,11.20
2018-03-19T08:01:58.451Z,9.10
2018-03-19T08:02:58.472Z,8.80
2018-03-19T08:03:58.490Z,10.70
2018-03-19T08:04:58.503Z,11.50
2018-03-19T08:05:58.513Z,35.20
2018-03-19T08:06:58.528Z,30.50
2018-03-19T08:07:58.544Z,31.60
2018-03-19T08:08:58.558Z,31.20
2018-03-19T08:09:58.573Z,43.80
2018-03-19T08:10:58.588Z,19.10
2018-03-19T08:11:58.602Z,21.00
2018-03-19T08:12:58.622Z,18.40
2018-03-19T08:13:58.633Z,9.30
2018-03-19T08:14:58.649Z,10.00
2018-03-19T08:15:58.673Z,11.10
2018-03-19T08:16:58.677Z,10.80
2018-03-19T08:17:58.696Z,11.60
2018-03-19T08:18:58.710Z,9.30
2018-03-19T08:19:58.727Z,8.00
2018-03-19T08:20:58.739Z,10.30
2018-03-19T08:21:58.769Z,11.00
2018-03-19T08:22:58.767Z,8.40
2018-03-19T08:23:58.782Z,9.10
2018-03-19T08:24:58.801Z,10.40
2018-03-19T08:25:58.818Z,9.40
2018-03-19T08:26:58.828Z,10.00
2018-03-19T08:27:58.852Z,9.20
2018-03-19T08:28:58.871Z,9.70
2018-03-19T08:29:58.882Z,9.40
2018-03-19T08:30:58.891Z,9.70
2018-03-19T08:31:58.906Z,9.70
2018-03-19T08:32:58.920Z,8.40
2018-03-19T08:33:58.938Z,8.60
2018-03-19T08:34:59.205Z,7.60
2018-03-19T08:35:58.967Z,7.40
2018-03-19T08:36:58.981Z,9.90
2018-03-19T08:37:58.997Z,9.20
2018-03-19T08:38:59.020Z,9.30
2018-03-19T08:39:59.030Z,9.10
2018-03-19T08:40:59.044Z,11.20
2018-03-19T08:41:59.057Z,8.30
2018-03-19T08:42:59.071Z,9.20
2018-03-19T08:43:59.091Z,8.00
2018-03-19T08:44:59.101Z,8.70
2018-03-19T08:45:59.121Z,8.10
2018-03-19T08:46:59.133Z,7.50
2018-03-19T08:47:59.147Z,7.90
2018-03-19T08:48:59.164Z,9.90
2018-03-19T08:49:59.179Z,8.60
2018-03-19T08:50:59.199Z,15.20
2018-03-19T08:51:59.215Z,8.40
2018-03-19T08:52:59.225Z,8.20
2018-03-19T08:53:59.241Z,8.00
2018-03-19T08:54:59.256Z,10.90
2018-03-19T08:55:59.272Z,9.70
2018-03-19T08:56:59.286Z,8.00
2018-03-19T08:57:59.300Z,8.00
2018-03-19T08:58:59.316Z,10.60
2018-03-19T08:59:59.339Z,9.40
2018-03-19T09:00:59.348Z,9.50
2018-03-19T09:01:59.360Z,7.70
2018-03-19T09:02:59.382Z,8.00
2018-03-19T09:03:59.399Z,7.90
2018-03-19T09:04:59.407Z,7.50
2018-03-19T09:05:59.432Z,8.10
2018-03-19T09:06:59.445Z,7.50
2018-03-19T09:07:59.458Z,6.40
2018-03-19T09:08:59.471Z,6.50
2018-03-19T09:09:59.501Z,7.20
2018-03-19T09:10:59.501Z,7.90
2018-03-19T09:11:59.523Z,7.00
2018-03-19T09:12:59.539Z,7.70
2018-03-19T09:13:59.543Z,7.80
2018-03-19T09:14:59.568Z,6.30
2018-03-19T09:15:59.581Z,7.70
2018-03-19T09:16:59.600Z,7.50
2018-03-19T09:17:59.618Z,6.80
2018-03-19T09:18:59.632Z,6.10
2018-03-19T09:19:59.638Z,7.10
2018-03-19T09:20:59.652Z,6.50
2018-03-19T09:21:59.673Z,7.10
2018-03-19T09:22:59.683Z,7.90
2018-03-19T09:23:59.705Z,8.90
2018-03-19T09:24:59.715Z,8.60
2018-03-19T09:25:59.735Z,8.80
2018-03-19T09:26:59.744Z,7.50
2018-03-19T09:27:59.766Z,7.60
2018-03-19T09:28:59.781Z,7.50
2018-03-19T09:29:59.795Z,7.00
2018-03-19T09:30:59.810Z,6.30
2018-03-19T09:31:59.826Z,7.80
2018-03-19T09:32:59.839Z,8.10
2018-03-19T09:33:59.853Z,6.30
2018-03-19T09:34:59.875Z,7.20
2018-03-19T09:35:59.892Z,7.20
2018-03-19T09:36:59.902Z,8.40
2018-03-19T09:37:59.921Z,6.80
2018-03-19T09:39:00.193Z,6.60
2018-03-19T09:39:59.954Z,6.60
2018-03-19T09:40:59.966Z,7.10
2018-03-19T09:41:59.978Z,6.70
2018-03-19T09:42:59.996Z,7.60
2018-03-19T09:44:00.017Z,6.30
2018-03-19T09:45:00.030Z,6.10
2018-03-19T09:46:00.050Z,5.60
2018-03-19T09:47:00.062Z,7.70
2018-03-19T09:48:00.075Z,5.90
2018-03-19T09:49:00.100Z,6.80
2018-03-19T09:50:00.107Z,5.60
2018-03-19T09:51:00.138Z,7.30
2018-03-19T09:52:00.142Z,5.70
2018-03-19T09:53:00.153Z,6.00
2018-03-19T09:54:00.168Z,7.90
2018-03-19T09:55:00.196Z,7.60
2018-03-19T09:56:00.203Z,6.10
2018-03-19T09:57:00.226Z,6.10
2018-03-19T09:58:00.233Z,6.10
2018-03-19T09:59:00.252Z,7.90
2018-03-19T10:00:00.264Z,6.70
2018-03-19T10:01:00.280Z,5.30
2018-03-19T10:02:00.340Z,6.60
2018-03-19T10:03:00.316Z,7.10
2018-03-19T10:04:00.331Z,7.20
2018-03-19T10:05:00.349Z,5.90
2018-03-19T10:06:00.362Z,7.30
2018-03-19T10:07:00.382Z,6.20
2018-03-19T10:08:00.396Z,6.30
2018-03-19T10:09:00.450Z,8.60
2018-03-19T10:10:00.430Z,6.00
2018-03-19T10:11:00.436Z,8.90
2018-03-19T10:12:00.465Z,6.80
2018-03-19T10:13:00.477Z,6.30
2018-03-19T10:14:00.486Z,5.60
2018-03-19T10:15:00.507Z,6.70
2018-03-19T10:16:00.525Z,7.40
2018-03-19T10:17:00.533Z,6.40
2018-03-19T10:18:00.555Z,8.20
2018-03-19T10:19:00.573Z,7.00
2018-03-19T10:20:00.589Z,6.20
2018-03-19T10:21:00.603Z,6.10
2018-03-19T10:22:00.621Z,6.80
2018-03-19T10:23:00.633Z,7.60
2018-03-19T10:24:00.658Z,6.60
2018-03-19T10:25:00.671Z,7.00
2018-03-19T10:26:00.682Z,7.90
2018-03-19T10:27:00.701Z,7.90
2018-03-19T10:28:00.718Z,6.30
2018-03-19T10:29:00.737Z,6.70
2018-03-19T10:30:00.747Z,6.80
2018-03-19T10:31:00.770Z,7.80
2018-03-19T10:32:00.780Z,6.60
2018-03-19T10:33:00.794Z,7.60
2018-03-19T10:34:00.817Z,7.70
2018-03-19T10:35:00.831Z,9.60
2018-03-19T10:36:00.845Z,7.50
2018-03-19T10:37:00.861Z,6.80
2018-03-19T10:38:00.876Z,9.00
2018-03-19T10:39:00.898Z,6.50
2018-03-19T10:40:00.947Z,6.30
2018-03-19T10:41:00.928Z,6.80
2018-03-19T10:42:00.954Z,9.20
2018-03-19T10:43:00.961Z,7.40
2018-03-19T10:44:00.978Z,6.20
2018-03-19T10:45:00.994Z,7.60
2018-03-19T10:46:01.010Z,7.20
2018-03-19T10:47:01.028Z,11.00
2018-03-19T10:48:01.046Z,7.90
2018-03-19T10:49:01.064Z,11.60
2018-03-19T10:50:01.079Z,7.00
2018-03-19T10:51:01.092Z,7.30
2018-03-19T10:52:01.117Z,6.50
2018-03-19T10:53:01.189Z,6.40
2018-03-19T10:54:01.145Z,7.30
2018-03-19T10:55:01.168Z,6.70
2018-03-19T10:56:01.179Z,8.40
2018-03-19T10:57:01.202Z,5.70
2018-03-19T10:58:01.212Z,6.50
2018-03-19T10:59:01.236Z,9.20
2018-03-19T11:00:01.253Z,9.70
2018-03-19T11:01:01.263Z,6.60
2018-03-19T11:02:01.279Z,5.40
2018-03-19T11:03:01.303Z,6.10
2018-03-19T11:05:01.338Z,6.00
2018-03-19T11:06:01.349Z,4.70
2018-03-19T11:07:01.375Z,6.30
2018-03-19T11:08:01.390Z,7.20
2018-03-19T11:09:01.411Z,7.30
2018-03-19T11:10:01.429Z,6.20
2018-03-19T11:11:01.448Z,7.10
2018-03-19T11:12:01.547Z,6.50
2018-03-19T11:13:01.492Z,6.50
2018-03-19T11:14:01.516Z,7.70
2018-03-19T11:15:01.531Z,7.30
2018-03-19T11:16:01.553Z,6.90
2018-03-19T11:17:01.597Z,7.40
2018-03-19T11:18:01.626Z,6.80
2018-03-19T11:19:01.661Z,5.50
2018-03-19T11:20:01.704Z,5.40
2018-03-19T11:21:01.658Z,6.10
2018-03-19T11:22:01.684Z,6.10
2018-03-19T11:23:01.755Z,10.10
2018-03-19T11:24:01.732Z,7.20
2018-03-19T11:25:01.759Z,5.10
2018-03-19T11:26:01.784Z,7.00
2018-03-19T11:27:01.804Z,5.50
2018-03-19T11:28:01.829Z,5.90
2018-03-19T11:29:01.861Z,7.60
2018-03-19T11:30:01.884Z,5.30
2018-03-19T11:31:01.909Z,6.10
2018-03-19T11:32:01.939Z,5.40
2018-03-19T11:33:01.959Z,5.10
2018-03-19T11:34:01.987Z,7.20
2018-03-19T11:35:02.013Z,5.00
2018-03-19T11:36:02.039Z,5.30
2018-03-19T11:37:02.068Z,6.60
2018-03-19T11:38:02.096Z,5.50
2018-03-19T11:39:02.123Z,5.20
2018-03-19T11:40:02.159Z,5.20
2018-03-19T11:41:02.181Z,6.70
2018-03-19T11:42:02.203Z,6.10
2018-03-19T11:43:02.236Z,5.20
2018-03-19T11:44:02.265Z,6.40
2018-03-19T11:45:02.292Z,7.40
2018-03-19T11:46:02.320Z,5.70
2018-03-19T11:47:02.348Z,4.20
2018-03-19T11:48:02.378Z,6.00
2018-03-19T11:49:02.402Z,5.00
2018-03-19T11:50:02.440Z,6.40
2018-03-19T11:51:02.464Z,5.10
2018-03-19T11:52:02.493Z,4.30
2018-03-19T11:53:02.520Z,5.20
2018-03-19T11:54:02.553Z,5.70
2018-03-19T11:55:02.584Z,5.50
2018-03-19T11:56:02.613Z,5.10
2018-03-19T11:57:02.644Z,7.30
2018-03-19T11:58:02.689Z,4.30
2018-03-19T11:59:02.702Z,5.60
2018-03-19T12:00:02.737Z,5.20
2018-03-19T12:01:02.772Z,5.10
2018-03-19T12:02:02.795Z,5.20
2018-03-19T12:03:02.824Z,6.90
2018-03-19T12:04:02.864Z,8.60
2018-03-19T12:05:02.880Z,5.40
2018-03-19T12:06:02.913Z,5.30
2018-03-19T12:07:02.946Z,4.10
2018-03-19T12:08:02.977Z,6.50
2018-03-19T12:09:03.011Z,6.60
2018-03-19T12:10:03.042Z,5.30
2018-03-19T12:11:03.073Z,5.60
2018-03-19T12:12:03.100Z,5.50
2018-03-19T12:13:03.138Z,4.60
2018-03-19T12:14:03.167Z,5.90
2018-03-19T12:15:03.197Z,6.70
2018-03-19T12:16:03.225Z,4.40
2018-03-19T12:17:03.258Z,5.40
2018-03-19T12:18:03.294Z,5.80
2018-03-19T12:19:03.330Z,4.40
2018-03-19T12:20:03.350Z,5.20
2018-03-19T12:21:03.392Z,4.60
2018-03-19T12:22:03.411Z,7.80
2018-03-19T12:23:03.446Z,6.00
2018-03-19T12:24:03.477Z,5.90
2018-03-19T12:25:03.510Z,5.50
2018-03-19T12:26:03.541Z,6.40
2018-03-19T12:27:03.573Z,8.00
2018-03-19T12:28:03.613Z,5.60
2018-03-19T12:29:03.644Z,5.80
2018-03-19T12:30:03.674Z,5.30
2018-03-19T12:31:03.705Z,6.00
2018-03-19T12:32:03.740Z,5.10
2018-03-19T12:33:03.769Z,5.80
2018-03-19T12:34:03.805Z,5.50
2018-03-19T12:35:03.837Z,7.80
2018-03-19T12:36:03.869Z,4.60
2018-03-19T12:37:03.904Z,4.70
2018-03-19T12:38:03.942Z,5.40
2018-03-19T12:39:03.971Z,5.10
2018-03-19T12:40:04.004Z,4.10
2018-03-19T12:41:04.036Z,5.40
2018-03-19T12:42:04.107Z,4.60
2018-03-19T12:43:04.105Z,4.50
2018-03-19T12:44:04.143Z,4.50
2018-03-19T12:45:04.176Z,4.50
2018-03-19T12:46:04.215Z,5.10
2018-03-19T12:47:04.246Z,6.10
2018-03-19T12:48:04.277Z,5.90
2018-03-19T12:49:04.305Z,4.60
2018-03-19T12:50:04.350Z,4.70
2018-03-19T12:51:04.464Z,4.30
2018-03-19T12:52:04.420Z,5.20
2018-03-19T12:53:04.443Z,8.20
2018-03-19T12:54:04.487Z,5.90
2018-03-19T12:55:04.519Z,4.80
2018-03-19T12:56:04.554Z,4.90
2018-03-19T12:57:04.585Z,4.30
2018-03-19T12:58:04.621Z,4.20
2018-03-19T12:59:04.653Z,5.30
2018-03-19T13:00:04.692Z,4.30
2018-03-19T13:01:04.723Z,4.60
2018-03-19T13:02:04.763Z,5.20
2018-03-19T13:03:04.796Z,5.90
2018-03-19T13:04:04.882Z,6.00
2018-03-19T13:05:04.865Z,4.90
2018-03-19T13:06:04.905Z,5.00
2018-03-19T13:07:04.940Z,4.50
2018-03-19T13:08:04.972Z,5.40
2018-03-19T13:09:05.013Z,5.70
2018-03-19T13:10:05.042Z,5.30
2018-03-19T13:11:05.086Z,7.80
2018-03-19T13:12:05.122Z,7.30
2018-03-19T13:13:05.152Z,5.50
2018-03-19T13:14:05.196Z,4.90